Time;durP1;ratioP1;P1;durP2;ratioP2;P2;SDS_P1;SDS_P2;PMS_P1;PMS_P2;Temp;Humidity;BMP_temperature;BMP_pressure;BME280_temperature;BME280_humidity;BME280_pressure;Samples;Min_cycle;Max_cycle;Signal;HPM_P1;HPM_P2
2022/04/01 00:00:09;;;;;;;21.35;15.13;;;10.30;83.30;;;;;;5095280;28;20107;-12
2022/04/01 00:02:36;;;;;;;19.45;16.00;;;10.30;83.40;;;;;;5094945;28;20346;-12
2022/04/01 00:05:04;;;;;;;22.85;15.60;;;10.40;83.40;;;;;;5095383;28;20040;-12
2022/04/01 00:07:30;;;;;;;19.75;14.32;;;10.30;83.30;;;;;;5095306;28;20024;-13
2022/04/01 00:09:56;;;;;;;19.83;15.25;;;10.30;83.30;;;;;;5095182;28;20073;-11
2022/04/01 00:12:22;;;;;;;20.48;16.08;;;10.30;83.30;;;;;;5095147;28;20051;-12
2022/04/01 00:14:48;;;;;;;20.50;15.35;;;10.40;83.40;;;;;;5095118;28;20024;-12
2022/04/01 00:17:14;;;;;;;24.35;17.88;;;10.40;83.40;;;;;;5095164;28;20093;-12
2022/04/01 00:19:40;;;;;;;20.42;16.45;;;10.40;83.40;;;;;;5094818;28;20038;-12
2022/04/01 00:22:06;;;;;;;22.70;16.52;;;10.40;83.50;;;;;;5094670;28;20039;-12
2022/04/01 00:24:33;;;;;;;22.63;16.98;;;10.40;83.40;;;;;;5094482;28;20032;-12
2022/04/01 00:27:00;;;;;;;21.25;16.63;;;10.40;83.40;;;;;;5094649;28;20388;-13
2022/04/01 00:29:26;;;;;;;20.35;15.55;;;10.30;83.40;;;;;;5094596;28;20476;-12
2022/04/01 00:32:00;;;;;;;20.50;15.45;;;10.30;83.40;;;;;;5094846;28;20024;-12
2022/04/01 00:34:32;;;;;;;21.35;17.52;;;10.30;83.50;;;;;;5094274;28;20086;-13
2022/04/01 00:37:00;;;;;;;20.42;16.17;;;10.30;83.40;;;;;;5094694;28;20016;-13
2022/04/01 00:39:32;;;;;;;25.73;19.60;;;10.30;83.50;;;;;;5094694;28;20055;-12
2022/04/01 00:42:00;;;;;;;20.50;16.02;;;10.30;83.60;;;;;;5093257;28;20023;-12
2022/04/01 00:44:29;;;;;;;18.55;14.20;;;10.20;83.60;;;;;;5094448;28;20048;-12
2022/04/01 00:46:58;;;;;;;19.80;15.35;;;10.20;83.80;;;;;;5094276;28;20024;-12
2022/04/01 00:49:28;;;;;;;19.33;14.88;;;10.20;83.90;;;;;;5094732;28;20056;-12
2022/04/01 00:51:57;;;;;;;26.10;20.00;;;10.20;84.00;;;;;;5094273;28;20131;-12
2022/04/01 00:54:24;;;;;;;25.27;19.90;;;10.20;84.20;;;;;;5093930;28;20035;-12
2022/04/01 00:56:50;;;;;;;27.23;21.00;;;10.20;84.00;;;;;;5094433;28;20075;-13
2022/04/01 00:59:17;;;;;;;26.42;21.35;;;10.20;83.90;;;;;;5093633;28;20024;-12
2022/04/01 01:01:44;;;;;;;22.40;18.55;;;10.10;84.80;;;;;;5094331;28;20034;-12
2022/04/01 01:04:15;;;;;;;20.13;15.15;;;10.00;84.40;;;;;;5094286;28;20024;-12
2022/04/01 01:06:50;;;;;;;19.85;16.27;;;10.00;84.40;;;;;;5093736;28;20032;-12
2022/04/01 01:09:18;;;;;;;21.58;16.10;;;10.00;84.50;;;;;;5093915;28;20016;-12
2022/04/01 01:11:45;;;;;;;21.30;16.58;;;9.90;85.10;;;;;;5094179;28;20024;-12
2022/04/01 01:14:13;;;;;;;15.63;12.63;;;10.00;85.10;;;;;;5093742;28;20551;-12
2022/04/01 01:16:45;;;;;;;18.60;14.20;;;10.00;84.70;;;;;;5093745;28;20446;-12
2022/04/01 01:19:15;;;;;;;17.77;13.90;;;10.00;84.90;;;;;;5094364;28;20028;-12
2022/04/01 01:21:42;;;;;;;16.23;12.18;;;10.00;84.90;;;;;;5093639;28;20050;-11
2022/04/01 01:24:17;;;;;;;13.77;11.27;;;10.00;84.60;;;;;;5093752;28;20065;-12
2022/04/01 01:26:48;;;;;;;15.55;12.95;;;10.10;84.50;;;;;;5093637;28;20102;-12
2022/04/01 01:29:22;;;;;;;15.85;12.70;;;10.10;84.50;;;;;;5094298;28;20442;-13
2022/04/01 01:31:49;;;;;;;20.23;15.48;;;10.20;84.30;;;;;;5093578;28;20433;-12
2022/04/01 01:34:17;;;;;;;18.05;13.82;;;10.20;84.60;;;;;;5093173;28;20032;-12
2022/04/01 01:36:43;;;;;;;19.77;15.50;;;10.20;84.50;;;;;;5093344;28;20024;-13
2022/04/01 01:39:09;;;;;;;21.92;16.40;;;10.20;84.60;;;;;;5093397;28;20516;-11
2022/04/01 01:41:36;;;;;;;15.98;12.50;;;10.20;84.70;;;;;;5093666;28;20020;-12
2022/04/01 01:44:04;;;;;;;16.67;13.25;;;10.20;84.60;;;;;;5093339;28;20096;-12
2022/04/01 01:46:31;;;;;;;17.65;13.65;;;10.20;84.40;;;;;;5093436;28;20024;-12
2022/04/01 01:48:57;;;;;;;17.73;13.52;;;10.30;84.20;;;;;;5093279;28;20028;-11
2022/04/01 01:56:52;;;;;;;18.75;14.65;;;10.30;84.00;;;;;;5093895;28;20268;-12
2022/04/01 01:59:18;;;;;;;16.80;13.93;;;10.40;83.80;;;;;;5093498;28;20016;-12
2022/04/01 02:01:45;;;;;;;16.90;12.98;;;10.40;83.70;;;;;;5093353;28;20036;-12
2022/04/01 02:04:14;;;;;;;18.80;14.88;;;10.40;83.70;;;;;;5093424;28;20028;-12
2022/04/01 02:06:40;;;;;;;24.77;16.00;;;10.40;83.70;;;;;;5093224;28;20020;-12
2022/04/01 02:09:06;;;;;;;21.10;17.30;;;10.40;83.70;;;;;;5094777;28;20020;-12
2022/04/01 02:11:32;;;;;;;18.60;15.40;;;10.40;83.80;;;;;;5096053;28;20036;-12
2022/04/01 02:13:58;;;;;;;20.90;16.42;;;10.40;83.80;;;;;;5097489;28;20024;-12
2022/04/01 02:16:25;;;;;;;22.40;17.52;;;10.40;83.90;;;;;;5096953;28;20060;-12
2022/04/01 02:18:51;;;;;;;25.50;19.00;;;10.30;84.50;;;;;;5097469;28;20021;-13
2022/04/01 02:21:17;;;;;;;18.52;14.80;;;10.30;85.00;;;;;;5097311;28;20081;-13
2022/04/01 02:23:46;;;;;;;19.70;15.48;;;10.30;84.70;;;;;;5095797;28;20016;-11
2022/04/01 02:26:13;;;;;;;17.67;13.32;;;10.20;84.60;;;;;;5097141;28;20059;-12
2022/04/01 02:28:41;;;;;;;20.10;15.77;;;10.20;84.40;;;;;;5096962;28;20028;-12
2022/04/01 02:31:08;;;;;;;22.50;18.30;;;10.30;84.40;;;;;;5096962;28;20025;-12
2022/04/01 02:33:35;;;;;;;21.60;16.73;;;10.30;84.40;;;;;;5096800;28;20032;-11
2022/04/01 02:36:06;;;;;;;22.60;18.33;;;10.20;84.40;;;;;;5096754;28;20032;-12
2022/04/01 02:38:33;;;;;;;28.55;20.58;;;10.20;85.00;;;;;;5096926;28;20036;-12
2022/04/01 02:40:59;;;;;;;26.05;19.20;;;10.20;84.70;;;;;;5096720;28;20455;-12
2022/04/01 02:43:25;;;;;;;25.00;19.35;;;10.20;85.50;;;;;;5096976;28;20028;-12
2022/04/01 02:45:52;;;;;;;26.63;18.92;;;10.10;85.20;;;;;;5096957;28;20032;-12
2022/04/01 02:48:20;;;;;;;21.27;16.30;;;10.10;85.20;;;;;;5096392;28;20033;-13
2022/04/01 02:50:48;;;;;;;20.83;16.27;;;10.10;84.80;;;;;;5097107;28;20050;-12
2022/04/01 02:53:17;;;;;;;24.05;16.42;;;10.10;84.90;;;;;;5096296;28;20480;-12
2022/04/01 02:55:44;;;;;;;29.25;21.65;;;10.10;84.80;;;;;;5096774;28;20078;-13
2022/04/01 02:58:12;;;;;;;29.50;23.23;;;10.20;85.00;;;;;;5096866;28;20054;-11
2022/04/01 03:00:39;;;;;;;26.48;20.52;;;10.10;85.60;;;;;;5096347;28;20028;-12
2022/04/01 03:03:10;;;;;;;27.15;20.77;;;10.10;85.50;;;;;;5095458;28;20024;-12
2022/04/01 03:05:37;;;;;;;31.80;25.05;;;10.10;85.30;;;;;;5096288;28;20099;-13
2022/04/01 03:08:05;;;;;;;32.75;24.38;;;10.10;86.00;;;;;;5096616;28;20024;-12
2022/04/01 03:10:35;;;;;;;30.55;23.60;;;10.00;86.10;;;;;;5096060;28;20027;-12
2022/04/01 03:13:01;;;;;;;28.70;21.65;;;10.00;86.50;;;;;;5096731;28;20115;-12
2022/04/01 03:15:28;;;;;;;26.48;20.73;;;9.90;86.60;;;;;;5096116;28;20024;-12
2022/04/01 03:17:55;;;;;;;23.85;18.05;;;9.90;86.00;;;;;;5096027;28;20038;-12
2022/04/01 03:20:25;;;;;;;25.60;18.50;;;9.90;85.60;;;;;;5095345;28;20032;-12
2022/04/01 03:22:52;;;;;;;26.35;19.80;;;9.90;85.50;;;;;;5096123;28;20024;-12
2022/04/01 03:25:20;;;;;;;26.40;19.52;;;10.00;85.50;;;;;;5095964;28;20059;-11
2022/04/01 03:27:49;;;;;;;26.85;19.17;;;10.00;85.50;;;;;;5096470;28;20405;-12
2022/04/01 03:30:17;;;;;;;26.95;18.15;;;10.00;85.60;;;;;;5095539;28;20024;-11
2022/04/01 03:32:45;;;;;;;24.70;19.50;;;9.90;85.80;;;;;;5096542;28;20035;-12
2022/04/01 03:35:16;;;;;;;20.80;16.23;;;10.00;85.70;;;;;;5096498;28;20451;-12
2022/04/01 03:37:45;;;;;;;21.13;15.98;;;10.00;85.50;;;;;;5095637;28;20031;-12
2022/04/01 03:40:15;;;;;;;22.17;17.50;;;10.00;85.30;;;;;;5095636;28;20028;-12
2022/04/01 03:42:46;;;;;;;30.90;24.15;;;10.00;85.30;;;;;;5095882;28;20024;-12
2022/04/01 03:45:14;;;;;;;28.58;22.17;;;10.10;85.70;;;;;;5095828;28;20388;-12
2022/04/01 03:48:15;;;;;;;31.48;22.70;;;10.10;85.40;;;;;;5095779;28;20043;-12
2022/04/01 03:50:46;;;;;;;26.48;19.83;;;10.10;86.20;;;;;;5091736;28;20472;-13
2022/04/01 03:53:14;;;;;;;27.08;19.77;;;10.00;85.90;;;;;;5095114;28;20519;-12
2022/04/01 03:55:46;;;;;;;26.95;19.35;;;10.00;85.60;;;;;;5095277;28;20568;-11
2022/04/01 03:58:13;;;;;;;25.13;18.58;;;9.90;85.40;;;;;;5095441;28;20024;-13
2022/04/01 04:00:41;;;;;;;31.92;23.70;;;9.90;85.40;;;;;;5095243;28;20115;-12
2022/04/01 04:03:09;;;;;;;28.80;21.23;;;9.90;85.70;;;;;;5095170;28;20077;-12
2022/04/01 04:05:37;;;;;;;28.73;21.80;;;9.90;85.90;;;;;;5095426;28;20020;-13
2022/04/01 04:08:05;;;;;;;34.53;23.77;;;9.90;85.90;;;;;;5094965;28;20036;-12
2022/04/01 04:10:34;;;;;;;32.60;23.65;;;9.90;86.20;;;;;;5094869;28;20031;-12
2022/04/01 04:13:07;;;;;;;32.15;22.25;;;9.90;86.10;;;;;;5095178;28;20028;-12
2022/04/01 04:15:52;;;;;;;31.27;22.17;;;9.90;86.00;;;;;;5094980;28;20024;-11
2022/04/01 04:18:20;;;;;;;27.20;20.70;;;9.80;85.90;;;;;;5094690;28;20028;-12
2022/04/01 04:20:50;;;;;;;30.58;23.65;;;9.80;86.40;;;;;;5094789;28;20559;-11
2022/04/01 04:23:44;;;;;;;32.42;24.38;;;9.80;86.50;;;;;;5094970;28;20119;-12
2022/04/01 04:26:15;;;;;;;34.22;24.02;;;9.80;86.60;;;;;;5094755;28;20020;-12
2022/04/01 04:28:49;;;;;;;25.25;18.33;;;9.80;86.60;;;;;;5094623;28;20024;-12
2022/04/01 04:31:26;;;;;;;34.55;24.13;;;9.80;86.50;;;;;;5094968;28;20101;-12
2022/04/01 04:33:56;;;;;;;36.15;25.83;;;9.80;86.50;;;;;;5093826;28;20028;-12
2022/04/01 04:36:38;;;;;;;34.33;24.85;;;9.80;86.30;;;;;;5094476;28;20028;-12
2022/04/01 04:39:25;;;;;;;22.98;17.80;;;9.80;86.30;;;;;;5094937;28;20480;-12
2022/04/01 04:41:52;;;;;;;27.58;20.23;;;9.80;86.20;;;;;;5093960;28;20515;-12
2022/04/01 04:44:24;;;;;;;25.52;19.35;;;9.90;86.10;;;;;;5094568;28;20035;-12
2022/04/01 04:46:51;;;;;;;26.63;19.10;;;9.90;86.00;;;;;;5094648;28;20051;-12
2022/04/01 04:49:19;;;;;;;26.65;20.13;;;9.90;85.70;;;;;;5094301;28;20031;-12
2022/04/01 04:51:48;;;;;;;36.65;26.40;;;9.90;85.50;;;;;;5093839;28;20038;-12
2022/04/01 04:54:15;;;;;;;29.30;23.48;;;9.90;86.10;;;;;;5093962;28;20036;-11
2022/04/01 04:56:41;;;;;;;36.85;26.13;;;9.90;86.30;;;;;;5094135;28;20383;-12
2022/04/01 04:59:09;;;;;;;36.08;26.65;;;9.90;86.10;;;;;;5094054;28;20031;-12
2022/04/01 05:01:38;;;;;;;41.13;28.55;;;9.90;86.40;;;;;;5094334;28;20073;-12
2022/04/01 05:04:46;;;;;;;37.03;26.50;;;9.90;86.60;;;;;;5094274;28;20035;-12
2022/04/01 05:07:44;;;;;;;32.45;23.42;;;9.90;86.00;;;;;;5093907;28;20114;-13
2022/04/01 05:10:18;;;;;;;36.42;24.50;;;9.80;86.40;;;;;;5094215;28;20016;-12
2022/04/01 05:13:02;;;;;;;33.75;24.40;;;9.80;86.70;;;;;;5094447;28;20521;-12
2022/04/01 05:15:31;;;;;;;40.65;29.15;;;9.80;86.50;;;;;;5094116;28;20440;-11
2022/04/01 05:18:12;;;;;;;33.17;22.63;;;9.80;87.00;;;;;;5093882;28;20065;-12
2022/04/01 05:20:46;;;;;;;32.20;24.08;;;9.80;86.20;;;;;;5094082;28;20016;-12
2022/04/01 05:23:15;;;;;;;31.27;24.05;;;9.90;85.90;;;;;;5093647;28;20071;-12
2022/04/01 05:25:44;;;;;;;31.60;22.92;;;9.90;85.90;;;;;;5093624;28;20032;-12
2022/04/01 05:28:48;;;;;;;36.50;25.40;;;9.90;86.10;;;;;;5093928;28;20028;-12
2022/04/01 05:31:44;;;;;;;30.88;22.85;;;10.00;85.80;;;;;;5093899;28;20020;-13
2022/04/01 05:34:34;;;;;;;42.20;28.55;;;10.00;85.70;;;;;;5083337;28;20392;-12
2022/04/01 05:37:02;;;;;;;40.50;26.33;;;10.00;86.90;;;;;;5093715;28;20024;-11
2022/04/01 05:39:31;;;;;;;47.60;30.05;;;10.00;86.60;;;;;;5093324;28;20111;-12
2022/04/01 05:41:59;;;;;;;50.50;28.98;;;10.00;86.70;;;;;;5093452;28;20024;-12
2022/04/01 05:44:26;;;;;;;50.28;30.45;;;9.90;86.80;;;;;;5092750;28;20047;-12
2022/04/01 05:46:54;;;;;;;42.83;27.90;;;9.90;87.30;;;;;;5093607;28;20027;-12
2022/04/01 05:49:21;;;;;;;46.03;28.38;;;10.00;87.10;;;;;;5093387;28;20016;-12
2022/04/01 05:51:48;;;;;;;40.05;25.27;;;10.00;86.80;;;;;;5093247;28;20039;-12
2022/04/01 05:54:19;;;;;;;49.35;30.23;;;10.10;86.40;;;;;;5091800;28;20044;-12
2022/04/01 05:56:47;;;;;;;45.85;29.60;;;10.20;86.50;;;;;;5093173;28;20610;-11
2022/04/01 05:59:18;;;;;;;42.05;27.13;;;10.20;86.50;;;;;;5093497;28;20148;-12
2022/04/01 06:02:04;;;;;;;46.65;29.88;;;10.30;86.00;;;;;;5091941;28;20105;-13
2022/04/01 06:04:57;;;;;;;44.65;27.23;;;10.30;86.30;;;;;;5093291;28;20050;-12
2022/04/01 06:07:28;;;;;;;43.25;27.38;;;10.30;86.00;;;;;;5093359;28;20031;-12
2022/04/01 06:10:11;;;;;;;49.13;31.27;;;10.40;85.90;;;;;;5093141;28;20468;-11
2022/04/01 06:13:14;;;;;;;48.00;31.35;;;10.30;86.10;;;;;;5093105;28;20028;-12
2022/04/01 06:16:07;;;;;;;45.92;29.50;;;10.40;86.10;;;;;;5093414;28;20024;-12
2022/04/01 06:18:48;;;;;;;41.63;25.83;;;10.40;85.60;;;;;;5092918;28;20032;-13
2022/04/01 06:21:21;;;;;;;45.13;30.00;;;10.40;85.50;;;;;;5093007;28;20082;-11
2022/04/01 06:24:06;;;;;;;39.88;27.23;;;10.50;85.80;;;;;;5092916;28;20077;-12
2022/04/01 06:26:40;;;;;;;40.58;27.52;;;10.50;85.70;;;;;;5093055;28;20524;-12
2022/04/01 06:29:16;;;;;;;44.55;28.80;;;10.60;85.60;;;;;;5093571;28;20410;-11
2022/04/01 06:31:52;;;;;;;48.55;30.02;;;10.60;85.20;;;;;;5093554;28;20020;-12
2022/04/01 06:34:23;;;;;;;41.40;28.02;;;10.60;85.60;;;;;;5093372;28;20036;-12
2022/04/01 06:36:59;;;;;;;39.20;26.42;;;10.60;85.40;;;;;;5092817;28;20456;-12
2022/04/01 06:39:39;;;;;;;50.78;30.27;;;10.60;85.30;;;;;;5093140;28;20467;-11
2022/04/01 06:42:09;;;;;;;42.72;28.95;;;10.60;85.70;;;;;;5093185;28;20021;-11
2022/04/01 06:44:35;;;;;;;44.25;29.80;;;10.50;85.70;;;;;;5092551;28;20031;-11
2022/04/01 06:47:01;;;;;;;44.33;29.33;;;10.50;85.70;;;;;;5092712;28;20023;-12
2022/04/01 06:49:27;;;;;;;44.75;29.10;;;10.60;85.80;;;;;;5093117;28;20032;-12
2022/04/01 06:51:53;;;;;;;47.42;28.50;;;10.40;86.40;;;;;;5092417;28;20043;-12
2022/04/01 06:54:19;;;;;;;49.80;30.73;;;10.50;85.90;;;;;;5092524;28;20040;-12
2022/04/01 06:56:45;;;;;;;43.28;28.33;;;10.50;85.90;;;;;;5094858;28;20032;-12
2022/04/01 06:59:11;;;;;;;41.13;26.38;;;10.50;86.00;;;;;;5096734;28;20035;-12
2022/04/01 07:01:38;;;;;;;45.17;29.00;;;10.50;85.70;;;;;;5096376;28;20099;-12
2022/04/01 07:04:04;;;;;;;50.55;31.40;;;10.60;85.70;;;;;;5096615;28;20070;-12
2022/04/01 07:06:31;;;;;;;46.97;29.73;;;10.60;85.90;;;;;;5095990;28;20119;-13
2022/04/01 07:08:57;;;;;;;53.80;34.20;;;10.60;86.10;;;;;;5096176;28;20053;-12
2022/04/01 07:11:22;;;;;;;45.97;29.85;;;10.60;86.00;;;;;;5096248;28;20028;-12
2022/04/01 07:13:48;;;;;;;42.75;28.92;;;10.60;85.80;;;;;;5096064;28;20024;-12
2022/04/01 07:16:14;;;;;;;47.50;30.70;;;10.70;85.70;;;;;;5095977;28;20024;-13
2022/04/01 07:18:40;;;;;;;46.17;27.98;;;10.80;85.70;;;;;;5096356;28;20031;-12
2022/04/01 07:21:08;;;;;;;47.85;30.48;;;10.90;85.50;;;;;;5095953;28;20028;-12
2022/04/01 07:23:35;;;;;;;43.15;28.90;;;10.90;85.50;;;;;;5095889;28;20016;-13
2022/04/01 07:26:01;;;;;;;44.72;27.45;;;11.00;85.60;;;;;;5095859;28;20123;-12
2022/04/01 07:28:27;;;;;;;47.20;29.88;;;11.00;85.30;;;;;;5095650;28;20060;-13
2022/04/01 07:30:54;;;;;;;52.13;30.85;;;11.10;85.50;;;;;;5096086;28;20027;-12
2022/04/01 07:33:20;;;;;;;44.33;28.20;;;11.10;85.50;;;;;;5095745;28;20055;-12
2022/04/01 07:35:49;;;;;;;40.75;25.35;;;11.20;85.40;;;;;;5095680;28;20438;-12
2022/04/01 07:38:16;;;;;;;42.00;25.95;;;11.20;84.90;;;;;;5095466;28;20024;-12
2022/04/01 07:40:42;;;;;;;48.58;29.15;;;11.30;84.80;;;;;;5095629;28;20028;-13
2022/04/01 07:43:09;;;;;;;37.95;24.77;;;11.30;84.80;;;;;;5095926;28;20091;-12
2022/04/01 07:45:37;;;;;;;37.80;24.83;;;11.30;84.80;;;;;;5095515;28;20492;-11
2022/04/01 07:48:04;;;;;;;40.03;25.45;;;11.30;84.90;;;;;;5095489;28;20119;-11
2022/04/01 07:50:29;;;;;;;39.63;24.85;;;11.30;84.80;;;;;;5095262;28;20028;-11
2022/04/01 07:52:56;;;;;;;41.17;24.70;;;11.30;84.80;;;;;;5095098;28;20070;-11
2022/04/01 07:55:23;;;;;;;36.15;22.85;;;11.30;84.90;;;;;;5095635;28;20028;-12
2022/04/01 07:57:52;;;;;;;36.60;22.63;;;11.30;84.80;;;;;;5095307;28;20035;-12
2022/04/01 08:00:19;;;;;;;34.05;23.13;;;11.30;85.10;;;;;;5095292;28;20039;-11
2022/04/01 08:02:46;;;;;;;34.15;22.73;;;11.30;85.00;;;;;;5095696;28;20020;-12
2022/04/01 08:05:13;;;;;;;36.95;23.67;;;11.30;84.80;;;;;;5095137;28;20388;-10
2022/04/01 08:07:39;;;;;;;36.47;23.98;;;11.30;85.20;;;;;;5095101;28;20047;-12
2022/04/01 08:10:06;;;;;;;35.85;23.42;;;11.40;85.10;;;;;;5095361;28;20028;-11
2022/04/01 08:12:34;;;;;;;36.85;22.55;;;11.50;84.60;;;;;;5094977;28;20028;-11
2022/04/01 08:15:01;;;;;;;37.45;23.75;;;11.50;84.50;;;;;;5095535;28;20036;-12
2022/04/01 08:17:28;;;;;;;32.95;22.58;;;11.60;84.30;;;;;;5095231;28;20106;-12
2022/04/01 08:19:54;;;;;;;33.05;22.80;;;11.70;83.50;;;;;;5095145;28;20086;-11
2022/04/01 08:22:19;;;;;;;32.28;22.15;;;11.70;83.50;;;;;;5094549;28;20484;-11
2022/04/01 08:24:45;;;;;;;31.65;22.33;;;11.80;83.70;;;;;;5095245;28;20034;-11
2022/04/01 08:27:12;;;;;;;29.95;21.33;;;11.90;83.50;;;;;;5095087;28;20528;-10
2022/04/01 08:29:38;;;;;;;31.15;20.40;;;12.10;82.90;;;;;;5095552;28;20028;-11
2022/04/01 08:32:08;;;;;;;31.80;20.88;;;12.20;82.30;;;;;;5094626;28;20028;-11
2022/04/01 08:34:34;;;;;;;32.22;20.73;;;12.10;82.20;;;;;;5094374;28;20472;-12
2022/04/01 08:37:00;;;;;;;29.48;20.02;;;12.20;83.00;;;;;;5094444;28;20029;-11
2022/04/01 08:39:28;;;;;;;30.50;19.85;;;12.40;82.10;;;;;;5095044;28;20016;-12
2022/04/01 08:41:56;;;;;;;27.20;19.90;;;12.50;82.20;;;;;;5094451;28;20103;-11
2022/04/01 08:44:22;;;;;;;26.63;17.42;;;12.70;81.40;;;;;;5094125;28;20547;-12
2022/04/01 08:46:48;;;;;;;27.65;18.75;;;12.90;80.00;;;;;;5094381;28;20108;-11
2022/04/01 08:49:13;;;;;;;28.98;19.20;;;13.00;79.60;;;;;;5095186;28;20357;-11
2022/04/01 08:51:39;;;;;;;24.27;17.55;;;12.90;79.80;;;;;;5093951;28;20036;-12
2022/04/01 08:54:05;;;;;;;26.55;18.95;;;12.70;79.50;;;;;;5094140;28;20035;-12
2022/04/01 08:56:31;;;;;;;25.38;17.50;;;12.70;79.00;;;;;;5093972;28;20508;-11
2022/04/01 08:58:58;;;;;;;23.90;16.35;;;12.60;79.90;;;;;;5094462;28;20027;-11
2022/04/01 09:01:24;;;;;;;23.60;15.52;;;12.50;80.20;;;;;;5094074;28;20036;-11
2022/04/01 09:03:53;;;;;;;21.95;15.15;;;12.60;80.10;;;;;;5094062;28;20099;-12
2022/04/01 09:06:19;;;;;;;20.77;15.60;;;12.60;79.90;;;;;;5093795;28;20035;-12
2022/04/01 09:08:45;;;;;;;21.42;14.80;;;12.50;80.20;;;;;;5093866;28;20490;-12
2022/04/01 09:11:17;;;;;;;21.38;15.15;;;12.40;80.40;;;;;;5093913;28;20039;-11
2022/04/01 09:13:43;;;;;;;21.75;14.40;;;12.30;81.20;;;;;;5094141;28;20036;-11
2022/04/01 09:16:22;;;;;;;22.52;15.95;;;12.30;81.20;;;;;;5093785;28;20082;-12
2022/04/01 09:18:48;;;;;;;18.75;13.40;;;12.30;80.90;;;;;;5093349;28;20098;-12
2022/04/01 09:21:15;;;;;;;18.73;13.15;;;12.20;81.10;;;;;;5093809;28;20039;-12
2022/04/01 09:23:47;;;;;;;19.70;13.25;;;12.20;81.00;;;;;;5093624;28;20039;-12
2022/04/01 09:26:18;;;;;;;20.80;13.48;;;12.20;81.10;;;;;;5093642;28;20476;-11
2022/04/01 09:28:44;;;;;;;19.98;13.55;;;12.10;81.20;;;;;;5093671;28;20028;-12
2022/04/01 09:31:13;;;;;;;21.13;13.05;;;12.20;81.80;;;;;;5093987;28;20023;-12
2022/04/01 09:33:51;;;;;;;20.15;13.30;;;12.30;82.00;;;;;;5093816;28;20040;-11
2022/04/01 09:36:26;;;;;;;20.05;13.60;;;12.50;81.60;;;;;;5093574;28;20032;-11
2022/04/01 09:38:56;;;;;;;21.25;13.90;;;12.70;80.90;;;;;;5093534;28;20472;-12
2022/04/01 09:41:31;;;;;;;18.25;12.23;;;12.90;79.80;;;;;;5093427;28;20514;-13
2022/04/01 09:44:25;;;;;;;19.67;13.75;;;12.90;79.20;;;;;;5093749;28;20072;-11
2022/04/01 09:47:05;;;;;;;19.00;13.52;;;12.90;79.30;;;;;;5090591;28;20032;-12
2022/04/01 09:49:44;;;;;;;19.15;13.70;;;12.90;78.60;;;;;;5093337;28;20058;-11
2022/04/01 09:52:18;;;;;;;17.23;11.45;;;12.90;78.60;;;;;;5093219;28;20050;-12
2022/04/01 09:54:50;;;;;;;20.35;13.57;;;12.90;78.50;;;;;;5093242;28;20038;-12
2022/04/01 09:57:18;;;;;;;17.35;12.88;;;12.80;78.80;;;;;;5093567;28;20072;-12
2022/04/01 09:59:45;;;;;;;20.02;12.88;;;12.80;79.10;;;;;;5093170;28;20484;-12
2022/04/01 10:02:11;;;;;;;17.73;13.30;;;12.90;78.70;;;;;;5091948;28;20029;-12
2022/04/01 10:04:37;;;;;;;19.88;13.77;;;12.90;78.90;;;;;;5093202;28;20507;-12
2022/04/01 10:07:03;;;;;;;19.98;14.07;;;12.90;80.10;;;;;;5093380;28;20111;-12
2022/04/01 10:09:30;;;;;;;21.85;14.40;;;12.90;79.20;;;;;;5093338;28;20056;-12
2022/04/01 10:12:01;;;;;;;24.30;13.60;;;13.00;78.80;;;;;;5093434;28;20114;-12
2022/04/01 10:14:27;;;;;;;20.52;14.25;;;13.10;78.80;;;;;;5093072;28;20040;-12
2022/04/01 10:16:56;;;;;;;21.15;14.15;;;13.30;78.70;;;;;;5093375;28;20032;-12
2022/04/01 10:19:47;;;;;;;19.60;13.98;;;13.50;78.20;;;;;;5093050;28;20039;-13
2022/04/01 10:22:16;;;;;;;19.35;13.63;;;13.60;77.40;;;;;;5092757;28;20032;-12
2022/04/01 10:25:03;;;;;;;21.02;13.63;;;13.80;77.80;;;;;;5093311;28;20027;-11
2022/04/01 10:27:41;;;;;;;18.25;12.52;;;13.90;76.20;;;;;;5093345;28;20494;-12
2022/04/01 10:30:14;;;;;;;18.40;12.10;;;13.80;76.10;;;;;;5094658;28;20066;-12
2022/04/01 10:32:42;;;;;;;20.25;13.73;;;13.80;75.90;;;;;;5097451;28;20035;-12
2022/04/01 10:35:29;;;;;;;17.70;12.55;;;13.80;76.50;;;;;;5097519;28;20487;-12
2022/04/01 10:38:18;;;;;;;18.05;12.50;;;13.80;76.40;;;;;;5096423;28;20113;-12
2022/04/01 10:40:49;;;;;;;19.70;13.75;;;13.90;76.10;;;;;;5097497;28;20054;-12
2022/04/01 10:43:27;;;;;;;18.52;12.55;;;13.90;77.40;;;;;;5097128;28;20028;-12
2022/04/01 10:46:12;;;;;;;18.77;12.02;;;13.90;76.70;;;;;;5097104;28;20095;-12
2022/04/01 10:52:12;;;;;;;17.83;12.27;;;14.40;74.60;;;;;;5096716;28;20031;-12
2022/04/01 10:54:43;;;;;;;17.60;12.52;;;14.60;75.10;;;;;;5096828;28;20032;-12
2022/04/01 10:57:31;;;;;;;17.60;12.38;;;14.80;75.80;;;;;;5096554;28;20536;-11
2022/04/01 11:00:04;;;;;;;17.80;12.10;;;14.90;74.30;;;;;;5096424;28;20028;-13
2022/04/01 11:02:30;;;;;;;16.88;11.93;;;15.30;74.10;;;;;;5097120;28;20032;-12
2022/04/01 11:04:57;;;;;;;16.27;11.18;;;15.60;73.80;;;;;;5096341;28;20028;-12
2022/04/01 11:07:23;;;;;;;18.10;11.60;;;15.80;72.70;;;;;;5096337;28;20492;-11
2022/04/01 11:09:51;;;;;;;14.23;10.60;;;15.90;71.60;;;;;;5095025;28;20036;-11
2022/04/01 11:12:23;;;;;;;15.50;11.43;;;15.90;71.40;;;;;;5095980;28;20031;-11
2022/04/01 11:15:08;;;;;;;16.50;11.88;;;15.90;70.00;;;;;;5096445;28;20035;-11
2022/04/01 11:17:34;;;;;;;16.30;10.30;;;15.60;70.40;;;;;;5096155;28;20028;-12
2022/04/01 11:20:00;;;;;;;14.18;10.13;;;15.40;70.30;;;;;;5096143;28;20020;-11
2022/04/01 11:22:39;;;;;;;13.93;10.48;;;15.20;70.70;;;;;;5095682;28;20421;-12
2022/04/01 11:25:32;;;;;;;13.77;10.25;;;15.00;71.90;;;;;;5095976;28;20054;-12
2022/04/01 11:28:05;;;;;;;14.90;10.20;;;15.00;71.40;;;;;;5064432;28;20032;-12
2022/04/01 11:30:40;;;;;;;15.40;10.60;;;15.00;72.10;;;;;;5095995;28;20480;-11
2022/04/01 11:33:08;;;;;;;15.25;10.82;;;14.90;72.00;;;;;;5095660;28;20028;-12
2022/04/01 11:35:57;;;;;;;13.75;10.25;;;14.60;72.90;;;;;;5096039;28;20059;-11
2022/04/01 11:38:29;;;;;;;14.00;10.80;;;14.60;73.00;;;;;;5053294;28;20058;-12
2022/04/01 11:41:00;;;;;;;15.55;11.15;;;14.50;73.50;;;;;;5053482;28;20036;-12
2022/04/01 11:43:27;;;;;;;15.48;10.82;;;14.30;74.10;;;;;;5052994;28;20037;-12
2022/04/01 11:45:59;;;;;;;14.93;10.55;;;14.30;73.90;;;;;;5053269;28;20040;-11
2022/04/01 11:48:28;;;;;;;18.30;11.65;;;14.20;74.40;;;;;;5036375;28;20452;-12
2022/04/01 11:50:58;;;;;;;18.25;11.88;;;14.10;75.10;;;;;;5053721;28;20044;-12
2022/04/01 11:53:30;;;;;;;18.75;12.07;;;14.00;75.50;;;;;;5052909;28;20056;-13
2022/04/01 11:55:58;;;;;;;19.23;13.00;;;13.70;75.80;;;;;;5053795;28;20119;-13
2022/04/01 11:58:26;;;;;;;20.20;13.40;;;13.60;76.60;;;;;;5052766;28;20481;-12
2022/04/01 12:00:53;;;;;;;21.50;13.35;;;13.30;78.40;;;;;;5053019;28;20074;-12
2022/04/01 12:03:19;;;;;;;20.42;13.27;;;13.00;78.90;;;;;;5053041;28;20118;-13
2022/04/01 12:05:46;;;;;;;18.85;12.80;;;12.80;79.90;;;;;;5052927;28;20123;-13
2022/04/01 12:10:59;;;;;;;23.77;14.52;;;12.40;81.70;;;;;;5053222;28;20434;-13
2022/04/01 12:13:28;;;;;;;24.40;15.52;;;12.20;82.10;;;;;;5052649;28;20064;-13
2022/04/01 12:15:57;;;;;;;23.33;14.82;;;12.20;82.20;;;;;;5076807;28;20043;-13
2022/04/01 12:18:29;;;;;;;21.65;14.10;;;12.10;82.60;;;;;;5094718;28;20024;-12
2022/04/01 12:21:00;;;;;;;25.15;15.10;;;12.00;83.20;;;;;;5095233;28;20024;-12
2022/04/01 12:23:30;;;;;;;22.63;14.75;;;11.90;83.30;;;;;;5094791;28;20088;-14
2022/04/01 12:25:56;;;;;;;25.98;15.18;;;11.80;83.90;;;;;;5094853;28;20077;-12
2022/04/01 12:28:37;;;;;;;21.30;14.82;;;11.70;84.40;;;;;;5093329;28;20024;-13
2022/04/01 12:31:03;;;;;;;25.92;15.90;;;11.50;84.90;;;;;;5094750;28;20032;-13
2022/04/01 12:33:34;;;;;;;23.45;13.23;;;11.40;86.00;;;;;;5094520;28;20062;-13
2022/04/01 12:36:08;;;;;;;25.55;14.77;;;11.40;85.30;;;;;;5094919;28;20096;-13
2022/04/01 12:38:38;;;;;;;39.28;25.02;;;11.40;86.00;;;;;;5094565;28;20136;-13
2022/04/01 12:41:18;;;;;;;27.05;17.63;;;11.40;86.40;;;;;;5095140;28;20032;-12
2022/04/01 12:43:54;;;;;;;28.88;18.50;;;11.40;86.30;;;;;;5094682;28;20492;-13
2022/04/01 12:46:25;;;;;;;27.88;17.10;;;11.50;85.90;;;;;;5094221;28;20439;-12
2022/04/01 12:48:58;;;;;;;28.33;17.52;;;11.50;86.70;;;;;;5094382;28;20392;-11
2022/04/01 12:51:27;;;;;;;25.95;17.25;;;11.70;87.00;;;;;;5094315;28;20065;-12
2022/04/01 12:53:54;;;;;;;26.17;15.65;;;11.80;86.50;;;;;;5093026;28;20040;-11
2022/04/01 12:56:23;;;;;;;27.27;16.58;;;11.90;86.30;;;;;;5094181;28;20020;-11